sensor_id;sensor_type;location;lat;lon;timestamp;pressure;altitude;pressure_sealevel;temperature;humidity
34297;BME280;20564;42.902;25.336;2023-01-29T00:02:20;97342.06;;;0.92;100.00
34297;BME280;20564;42.902;25.336;2023-01-29T00:04:47;97346.41;;;0.92;100.00
34297;BME280;20564;42.902;25.336;2023-01-29T00:07:15;97349.13;;;0.89;100.00
34297;BME280;20564;42.902;25.336;2023-01-29T00:09:42;97336.78;;;0.77;100.00
34297;BME280;20564;42.902;25.336;2023-01-29T00:12:08;97350.13;;;0.86;100.00
34297;BME280;20564;42.902;25.336;2023-01-29T00:14:35;97344.88;;;0.88;100.00
34297;BME280;20564;42.902;25.336;2023-01-29T00:17:02;97343.31;;;0.84;100.00
34297;BME280;20564;42.902;25.336;2023-01-29T00:19:29;97357.19;;;0.83;100.00
34297;BME280;20564;42.902;25.336;2023-01-29T00:21:56;97343.66;;;0.78;100.00
34297;BME280;20564;42.902;25.336;2023-01-29T00:24:23;97353.63;;;0.85;100.00
34297;BME280;20564;42.902;25.336;2023-01-29T00:26:50;97355.53;;;0.82;100.00
34297;BME280;20564;42.902;25.336;2023-01-29T00:29:17;97353.88;;;0.81;100.00
34297;BME280;20564;42.902;25.336;2023-01-29T00:31:45;97351.19;;;0.82;100.00
34297;BME280;20564;42.902;25.336;2023-01-29T00:34:13;97364.97;;;0.83;100.00
34297;BME280;20564;42.902;25.336;2023-01-29T00:36:40;97352.94;;;0.82;100.00
34297;BME280;20564;42.902;25.336;2023-01-29T00:39:09;97357.28;;;0.81;100.00
34297;BME280;20564;42.902;25.336;2023-01-29T00:41:36;97362.25;;;0.86;100.00
34297;BME280;20564;42.902;25.336;2023-01-29T00:44:22;97355.38;;;0.85;100.00
34297;BME280;20564;42.902;25.336;2023-01-29T00:47:21;97353.88;;;0.81;100.00
34297;BME280;20564;42.902;25.336;2023-01-29T00:50:03;97360.72;;;0.82;100.00
34297;BME280;20564;42.902;25.336;2023-01-29T00:52:30;97357.34;;;0.80;100.00
34297;BME280;20564;42.902;25.336;2023-01-29T00:55:00;97366.06;;;0.79;100.00
34297;BME280;20564;42.902;25.336;2023-01-29T00:57:31;97349.72;;;0.77;100.00
34297;BME280;20564;42.902;25.336;2023-01-29T01:00:01;97349.97;;;0.72;100.00
34297;BME280;20564;42.902;25.336;2023-01-29T01:02:33;97355.09;;;0.74;100.00
34297;BME280;20564;42.902;25.336;2023-01-29T01:05:19;97361.84;;;0.76;100.00
34297;BME280;20564;42.902;25.336;2023-01-29T01:07:51;97360.09;;;0.77;100.00
34297;BME280;20564;42.902;25.336;2023-01-29T01:10:30;97348.44;;;0.68;100.00
34297;BME280;20564;42.902;25.336;2023-01-29T01:13:01;97357.72;;;0.72;100.00
34297;BME280;20564;42.902;25.336;2023-01-29T01:15:38;97357.97;;;0.67;100.00
34297;BME280;20564;42.902;25.336;2023-01-29T01:18:07;97360.41;;;0.70;100.00
34297;BME280;20564;42.902;25.336;2023-01-29T01:20:48;97357.19;;;0.65;100.00
34297;BME280;20564;42.902;25.336;2023-01-29T01:23:23;97364.75;;;0.70;100.00
34297;BME280;20564;42.902;25.336;2023-01-29T01:25:58;97363.00;;;0.70;100.00
34297;BME280;20564;42.902;25.336;2023-01-29T01:28:27;97369.72;;;0.75;100.00
34297;BME280;20564;42.902;25.336;2023-01-29T01:31:07;97360.47;;;0.69;100.00
34297;BME280;20564;42.902;25.336;2023-01-29T01:33:35;97367.94;;;0.75;100.00
34297;BME280;20564;42.902;25.336;2023-01-29T01:36:07;97371.53;;;0.72;100.00
34297;BME280;20564;42.902;25.336;2023-01-29T01:38:37;97367.84;;;0.77;100.00
34297;BME280;20564;42.902;25.336;2023-01-29T01:41:18;97367.72;;;0.80;100.00
34297;BME280;20564;42.902;25.336;2023-01-29T01:43:52;97367.72;;;0.80;100.00
34297;BME280;20564;42.902;25.336;2023-01-29T01:46:23;97372.75;;;0.83;100.00
34297;BME280;20564;42.902;25.336;2023-01-29T01:52:12;97373.53;;;0.85;100.00
34297;BME280;20564;42.902;25.336;2023-01-29T01:54:57;97374.75;;;0.78;100.00
34297;BME280;20564;42.902;25.336;2023-01-29T01:57:33;97373.03;;;0.77;100.00
34297;BME280;20564;42.902;25.336;2023-01-29T02:00:12;97371.81;;;0.84;100.00
34297;BME280;20564;42.902;25.336;2023-01-29T02:02:56;97372.91;;;0.80;100.00
34297;BME280;20564;42.902;25.336;2023-01-29T02:05:52;97336.78;;;0.59;100.00
34297;BME280;20564;42.902;25.336;2023-01-29T02:08:59;97356.31;;;0.66;100.00
34297;BME280;20564;42.902;25.336;2023-01-29T02:11:49;97335.31;;;0.54;100.00
34297;BME280;20564;42.902;25.336;2023-01-29T02:14:21;97374.78;;;0.76;100.00
34297;BME280;20564;42.902;25.336;2023-01-29T02:16:51;97365.34;;;0.75;100.00
34297;BME280;20564;42.902;25.336;2023-01-29T02:19:31;97371.66;;;0.69;100.00
34297;BME280;20564;42.902;25.336;2023-01-29T02:31:23;97379.53;;;0.68;100.00
34297;BME280;20564;42.902;25.336;2023-01-29T02:44:47;97374.34;;;0.68;100.00
34297;BME280;20564;42.902;25.336;2023-01-29T02:51:12;97388.75;;;0.74;100.00
34297;BME280;20564;42.902;25.336;2023-01-29T02:56:58;97385.94;;;0.78;100.00
34297;BME280;20564;42.902;25.336;2023-01-29T03:06:05;97381.44;;;0.82;100.00
34297;BME280;20564;42.902;25.336;2023-01-29T03:08:42;97371.38;;;0.76;100.00
34297;BME280;20564;42.902;25.336;2023-01-29T03:11:16;97386.63;;;0.82;100.00
34297;BME280;20564;42.902;25.336;2023-01-29T03:14:14;97381.59;;;0.79;100.00
34297;BME280;20564;42.902;25.336;2023-01-29T03:16:52;97388.59;;;0.77;100.00
34297;BME280;20564;42.902;25.336;2023-01-29T03:19:39;97390.56;;;0.71;100.00
34297;BME280;20564;42.902;25.336;2023-01-29T03:22:18;97392.25;;;0.72;100.00
34297;BME280;20564;42.902;25.336;2023-01-29T03:24:56;97388.44;;;0.80;100.00
34297;BME280;20564;42.902;25.336;2023-01-29T03:28:02;97394.31;;;0.83;100.00
34297;BME280;20564;42.902;25.336;2023-01-29T03:31:02;97400.19;;;0.87;100.00
34297;BME280;20564;42.902;25.336;2023-01-29T03:34:06;97397.75;;;0.84;100.00
34297;BME280;20564;42.902;25.336;2023-01-29T03:36:50;97400.34;;;0.84;100.00
34297;BME280;20564;42.902;25.336;2023-01-29T03:39:29;97404.53;;;0.86;100.00
34297;BME280;20564;42.902;25.336;2023-01-29T03:42:03;97400.19;;;0.87;100.00
34297;BME280;20564;42.902;25.336;2023-01-29T03:48:12;97396.31;;;0.78;100.00
34297;BME280;20564;42.902;25.336;2023-01-29T04:05:45;97395.63;;;0.75;100.00
34297;BME280;20564;42.902;25.336;2023-01-29T04:08:50;97399.88;;;0.76;100.00
34297;BME280;20564;42.902;25.336;2023-01-29T04:11:30;97397.97;;;0.79;100.00
34297;BME280;20564;42.902;25.336;2023-01-29T04:14:06;97405.13;;;0.74;100.00
34297;BME280;20564;42.902;25.336;2023-01-29T04:16:41;97402.75;;;0.69;100.00
34297;BME280;20564;42.902;25.336;2023-01-29T04:19:12;97404.44;;;0.70;100.00
34297;BME280;20564;42.902;25.336;2023-01-29T04:21:59;97408.25;;;0.63;100.00
34297;BME280;20564;42.902;25.336;2023-01-29T04:24:43;97413.09;;;0.69;100.00
34297;BME280;20564;42.902;25.336;2023-01-29T04:30:34;97421.53;;;0.75;100.00
34297;BME280;20564;42.902;25.336;2023-01-29T04:33:37;97416.34;;;0.75;100.00
34297;BME280;20564;42.902;25.336;2023-01-29T04:45:04;97421.28;;;0.79;100.00
34297;BME280;20564;42.902;25.336;2023-01-29T04:47:57;97421.75;;;0.70;100.00
34297;BME280;20564;42.902;25.336;2023-01-29T04:50:40;97426.06;;;0.69;100.00
34297;BME280;20564;42.902;25.336;2023-01-29T04:53:40;97439.19;;;0.66;100.00
34297;BME280;20564;42.902;25.336;2023-01-29T04:56:19;97428.19;;;0.61;100.00
34297;BME280;20564;42.902;25.336;2023-01-29T04:59:14;97425.75;;;0.58;100.00
34297;BME280;20564;42.902;25.336;2023-01-29T05:01:47;97433.38;;;0.61;100.00
34297;BME280;20564;42.902;25.336;2023-01-29T05:04:17;97441.00;;;0.64;100.00
34297;BME280;20564;42.902;25.336;2023-01-29T05:06:46;97444.38;;;0.66;100.00
34297;BME280;20564;42.902;25.336;2023-01-29T05:09:15;97441.22;;;0.60;100.00
34297;BME280;20564;42.902;25.336;2023-01-29T05:11:43;97449.69;;;0.63;100.00
34297;BME280;20564;42.902;25.336;2023-01-29T05:14:13;97452.97;;;0.67;100.00
34297;BME280;20564;42.902;25.336;2023-01-29T05:16:50;97437.94;;;0.56;100.00
34297;BME280;20564;42.902;25.336;2023-01-29T05:19:17;97445.00;;;0.53;100.00
34297;BME280;20564;42.902;25.336;2023-01-29T05:21:46;97450.09;;;0.54;100.00
34297;BME280;20564;42.902;25.336;2023-01-29T05:24:22;97455.28;;;0.54;100.00
34297;BME280;20564;42.902;25.336;2023-01-29T05:26:52;97443.41;;;0.50;100.00
34297;BME280;20564;42.902;25.336;2023-01-29T05:29:44;97453.63;;;0.53;100.00
34297;BME280;20564;42.902;25.336;2023-01-29T05:32:11;97456.81;;;0.58;100.00
34297;BME280;20564;42.902;25.336;2023-01-29T05:34:38;97448.44;;;0.53;100.00
34297;BME280;20564;42.902;25.336;2023-01-29T05:37:05;97455.09;;;0.59;100.00
34297;BME280;20564;42.902;25.336;2023-01-29T05:39:33;97454.88;;;0.63;100.00
34297;BME280;20564;42.902;25.336;2023-01-29T05:42:01;97464.25;;;0.66;100.00
34297;BME280;20564;42.902;25.336;2023-01-29T05:44:27;97465.22;;;0.63;100.00
34297;BME280;20564;42.902;25.336;2023-01-29T05:46:54;97469.97;;;0.72;100.00
34297;BME280;20564;42.902;25.336;2023-01-29T05:49:21;97473.63;;;0.68;100.00
34297;BME280;20564;42.902;25.336;2023-01-29T05:51:48;97476.53;;;0.80;100.00
34297;BME280;20564;42.902;25.336;2023-01-29T05:54:15;97490.31;;;0.80;100.00
34297;BME280;20564;42.902;25.336;2023-01-29T05:56:42;97484.25;;;0.81;100.00
34297;BME280;20564;42.902;25.336;2023-01-29T05:59:09;97479.44;;;0.74;100.00
34297;BME280;20564;42.902;25.336;2023-01-29T06:01:35;97487.59;;;0.83;100.00
34297;BME280;20564;42.902;25.336;2023-01-29T06:04:03;97486.38;;;0.90;100.00
34297;BME280;20564;42.902;25.336;2023-01-29T06:06:30;97488.50;;;0.82;100.00
34297;BME280;20564;42.902;25.336;2023-01-29T06:08:57;97499.44;;;0.89;100.00
34297;BME280;20564;42.902;25.336;2023-01-29T06:11:24;97502.84;;;0.89;100.00
34297;BME280;20564;42.902;25.336;2023-01-29T06:13:51;97508.25;;;0.85;100.00
34297;BME280;20564;42.902;25.336;2023-01-29T06:16:18;97510.16;;;0.81;100.00
34297;BME280;20564;42.902;25.336;2023-01-29T06:18:45;97510.22;;;0.80;100.00
34297;BME280;20564;42.902;25.336;2023-01-29T06:21:12;97508.41;;;0.82;100.00
34297;BME280;20564;42.902;25.336;2023-01-29T06:23:39;97516.03;;;0.85;100.00
34297;BME280;20564;42.902;25.336;2023-01-29T06:26:09;97513.50;;;0.83;100.00
34297;BME280;20564;42.902;25.336;2023-01-29T06:28:37;97509.00;;;0.87;100.00
34297;BME280;20564;42.902;25.336;2023-01-29T06:31:05;97518.31;;;0.91;100.00
34297;BME280;20564;42.902;25.336;2023-01-29T06:33:53;97514.19;;;0.87;100.00
34297;BME280;20564;42.902;25.336;2023-01-29T06:36:20;97526.94;;;0.91;100.00
34297;BME280;20564;42.902;25.336;2023-01-29T06:38:48;97519.84;;;0.95;100.00
34297;BME280;20564;42.902;25.336;2023-01-29T06:41:17;97525.81;;;0.97;100.00
34297;BME280;20564;42.902;25.336;2023-01-29T06:43:47;97536.03;;;1.00;100.00
34297;BME280;20564;42.902;25.336;2023-01-29T06:46:15;97524.69;;;1.03;100.00
34297;BME280;20564;42.902;25.336;2023-01-29T06:48:42;97534.84;;;1.07;100.00
34297;BME280;20564;42.902;25.336;2023-01-29T06:51:10;97539.09;;;1.08;100.00
34297;BME280;20564;42.902;25.336;2023-01-29T06:53:38;97538.53;;;1.02;100.00
34297;BME280;20564;42.902;25.336;2023-01-29T06:56:05;97539.84;;;0.93;100.00
34297;BME280;20564;42.902;25.336;2023-01-29T06:58:36;97546.81;;;0.91;100.00
34297;BME280;20564;42.902;25.336;2023-01-29T07:01:04;97553.50;;;0.96;100.00
34297;BME280;20564;42.902;25.336;2023-01-29T07:03:32;97554.47;;;0.94;100.00
34297;BME280;20564;42.902;25.336;2023-01-29T07:05:59;97558.72;;;0.95;100.00
34297;BME280;20564;42.902;25.336;2023-01-29T07:08:27;97550.63;;;0.84;100.00
34297;BME280;20564;42.902;25.336;2023-01-29T07:10:59;97555.97;;;0.81;100.00
34297;BME280;20564;42.902;25.336;2023-01-29T07:13:26;97554.13;;;0.83;100.00
34297;BME280;20564;42.902;25.336;2023-01-29T07:15:57;97562.88;;;0.80;100.00
34297;BME280;20564;42.902;25.336;2023-01-29T07:18:24;97565.63;;;0.77;100.00
34297;BME280;20564;42.902;25.336;2023-01-29T07:20:51;97554.47;;;0.75;100.00
34297;BME280;20564;42.902;25.336;2023-01-29T07:23:18;97566.94;;;0.86;100.00
34297;BME280;20564;42.902;25.336;2023-01-29T07:25:45;97569.41;;;0.89;100.00
34297;BME280;20564;42.902;25.336;2023-01-29T07:28:12;97563.91;;;0.95;100.00
34297;BME280;20564;42.902;25.336;2023-01-29T07:30:39;97572.09;;;1.05;100.00
34297;BME280;20564;42.902;25.336;2023-01-29T07:33:07;97563.63;;;1.01;100.00
34297;BME280;20564;42.902;25.336;2023-01-29T07:35:38;97560.13;;;1.02;100.00
34297;BME280;20564;42.902;25.336;2023-01-29T07:38:06;97571.03;;;1.09;100.00
34297;BME280;20564;42.902;25.336;2023-01-29T07:40:33;97559.69;;;1.11;100.00
34297;BME280;20564;42.902;25.336;2023-01-29T07:43:02;97564.75;;;1.14;100.00
34297;BME280;20564;42.902;25.336;2023-01-29T07:45:30;97571.47;;;1.18;100.00
34297;BME280;20564;42.902;25.336;2023-01-29T07:47:56;97567.25;;;1.16;100.00
34297;BME280;20564;42.902;25.336;2023-01-29T07:50:24;97575.09;;;1.14;100.00
34297;BME280;20564;42.902;25.336;2023-01-29T07:52:54;97570.84;;;1.13;100.00
34297;BME280;20564;42.902;25.336;2023-01-29T07:55:21;97583.81;;;1.13;100.00
34297;BME280;20564;42.902;25.336;2023-01-29T07:57:54;97584.91;;;1.08;100.00
34297;BME280;20564;42.902;25.336;2023-01-29T08:00:21;97582.09;;;1.12;100.00
34297;BME280;20564;42.902;25.336;2023-01-29T08:02:48;97592.78;;;1.06;100.00
34297;BME280;20564;42.902;25.336;2023-01-29T08:05:15;97588.13;;;1.13;100.00
34297;BME280;20564;42.902;25.336;2023-01-29T08:07:42;97588.81;;;1.16;100.00
34297;BME280;20564;42.902;25.336;2023-01-29T08:10:12;97587.94;;;1.17;100.00
34297;BME280;20564;42.902;25.336;2023-01-29T08:12:39;97596.22;;;1.24;100.00
34297;BME280;20564;42.902;25.336;2023-01-29T08:15:06;97601.28;;;1.27;100.00
34297;BME280;20564;42.902;25.336;2023-01-29T08:17:33;97602.38;;;1.40;100.00
34297;BME280;20564;42.902;25.336;2023-01-29T08:20:00;97600.03;;;1.36;100.00
34297;BME280;20564;42.902;25.336;2023-01-29T08:22:27;97601.56;;;1.40;100.00
34297;BME280;20564;42.902;25.336;2023-01-29T08:24:53;97609.09;;;1.44;100.00
34297;BME280;20564;42.902;25.336;2023-01-29T08:27:33;97610.16;;;1.40;100.00
34297;BME280;20564;42.902;25.336;2023-01-29T08:30:00;97612.63;;;1.43;100.00
34297;BME280;20564;42.902;25.336;2023-01-29T08:32:26;97614.16;;;1.48;100.00
34297;BME280;20564;42.902;25.336;2023-01-29T08:34:53;97606.50;;;1.44;100.00
34297;BME280;20564;42.902;25.336;2023-01-29T08:37:20;97610.09;;;1.42;100.00
34297;BME280;20564;42.902;25.336;2023-01-29T08:39:47;97621.28;;;1.42;100.00
34297;BME280;20564;42.902;25.336;2023-01-29T08:42:15;97613.59;;;1.41;100.00
34297;BME280;20564;42.902;25.336;2023-01-29T08:44:42;97618.97;;;1.19;100.00
34297;BME280;20564;42.902;25.336;2023-01-29T08:47:10;97615.31;;;1.23;100.00
34297;BME280;20564;42.902;25.336;2023-01-29T08:49:37;97621.31;;;1.24;100.00
34297;BME280;20564;42.902;25.336;2023-01-29T08:52:04;97628.03;;;1.28;100.00
34297;BME280;20564;42.902;25.336;2023-01-29T08:54:31;97621.06;;;1.30;100.00
34297;BME280;20564;42.902;25.336;2023-01-29T08:56:58;97624.56;;;1.29;100.00
34297;BME280;20564;42.902;25.336;2023-01-29T08:59:25;97632.81;;;1.37;100.00
34297;BME280;20564;42.902;25.336;2023-01-29T09:01:52;97628.69;;;1.33;100.00
34297;BME280;20564;42.902;25.336;2023-01-29T09:04:19;97628.34;;;1.22;100.00
34297;BME280;20564;42.902;25.336;2023-01-29T09:06:46;97633.47;;;1.23;100.00
34297;BME280;20564;42.902;25.336;2023-01-29T09:09:14;97628.50;;;1.18;100.00
34297;BME280;20564;42.902;25.336;2023-01-29T09:11:41;97625.75;;;1.22;100.00
34297;BME280;20564;42.902;25.336;2023-01-29T09:14:08;97627.28;;;1.26;100.00
34297;BME280;20564;42.902;25.336;2023-01-29T09:16:38;97616.69;;;1.30;100.00
34297;BME280;20564;42.902;25.336;2023-01-29T09:19:05;97615.59;;;1.36;100.00
34297;BME280;20564;42.902;25.336;2023-01-29T09:21:34;97616.97;;;1.43;100.00
34297;BME280;20564;42.902;25.336;2023-01-29T09:24:01;97616.81;;;1.46;100.00
34297;BME280;20564;42.902;25.336;2023-01-29T09:26:29;97611.31;;;1.52;100.00
34297;BME280;20564;42.902;25.336;2023-01-29T09:28:56;97612.16;;;1.53;100.00
34297;BME280;20564;42.902;25.336;2023-01-29T09:31:29;97613.88;;;1.54;100.00
34297;BME280;20564;42.902;25.336;2023-01-29T09:33:57;97614.16;;;1.48;100.00
34297;BME280;20564;42.902;25.336;2023-01-29T09:36:24;97614.53;;;1.40;100.00
34297;BME280;20564;42.902;25.336;2023-01-29T09:38:51;97609.69;;;1.32;100.00
34297;BME280;20564;42.902;25.336;2023-01-29T09:44:01;97603.50;;;1.35;100.00
34297;BME280;20564;42.902;25.336;2023-01-29T09:46:37;97600.44;;;1.27;100.00
34297;BME280;20564;42.902;25.336;2023-01-29T09:49:30;97604.44;;;1.34;100.00
34297;BME280;20564;42.902;25.336;2023-01-29T09:52:09;97600.91;;;1.35;100.00
34297;BME280;20564;42.902;25.336;2023-01-29T09:55:09;97595.72;;;1.35;100.00
34297;BME280;20564;42.902;25.336;2023-01-29T10:06:04;97597.75;;;1.47;100.00
34297;BME280;20564;42.902;25.336;2023-01-29T10:11:23;97595.63;;;1.55;100.00
34297;BME280;20564;42.902;25.336;2023-01-29T10:14:18;97599.38;;;1.67;100.00
34297;BME280;20564;42.902;25.336;2023-01-29T10:19:42;97594.63;;;1.58;100.00
34297;BME280;20564;42.902;25.336;2023-01-29T10:25:18;97581.50;;;1.43;100.00
34297;BME280;20564;42.902;25.336;2023-01-29T10:27:52;97584.28;;;1.39;100.00
34297;BME280;20564;42.902;25.336;2023-01-29T10:30:32;97591.03;;;1.43;100.00
34297;BME280;20564;42.902;25.336;2023-01-29T10:33:05;97580.66;;;1.43;100.00
34297;BME280;20564;42.902;25.336;2023-01-29T10:35:36;97584.00;;;1.45;100.00
34297;BME280;20564;42.902;25.336;2023-01-29T10:40:58;97566.78;;;1.44;100.00
34297;BME280;20564;42.902;25.336;2023-01-29T10:46:32;97566.13;;;1.39;100.00
34297;BME280;20564;42.902;25.336;2023-01-29T11:00:28;97563.25;;;1.45;100.00
34297;BME280;20564;42.902;25.336;2023-01-29T11:03:15;97550.38;;;1.43;100.00
34297;BME280;20564;42.902;25.336;2023-01-29T11:08:51;97542.66;;;1.42;100.00
34297;BME280;20564;42.902;25.336;2023-01-29T11:11:21;97543.47;;;1.42;100.00
34297;BME280;20564;42.902;25.336;2023-01-29T11:13:59;97540.06;;;1.42;100.00
34297;BME280;20564;42.902;25.336;2023-01-29T11:16:30;97540.06;;;1.42;100.00
34297;BME280;20564;42.902;25.336;2023-01-29T11:18:59;97540.75;;;1.45;100.00
34297;BME280;20564;42.902;25.336;2023-01-29T11:21:28;97536.09;;;1.35;100.00
34297;BME280;20564;42.902;25.336;2023-01-29T11:24:24;97538.28;;;1.42;100.00
34297;BME280;20564;42.902;25.336;2023-01-29T11:26:54;97540.69;;;1.47;100.00
34297;BME280;20564;42.902;25.336;2023-01-29T11:31:53;97529.31;;;1.50;100.00
34297;BME280;20564;42.902;25.336;2023-01-29T11:34:22;97524.75;;;1.55;100.00
34297;BME280;20564;42.902;25.336;2023-01-29T11:36:57;97524.13;;;1.50;100.00
34297;BME280;20564;42.902;25.336;2023-01-29T11:39:26;97525.03;;;1.49;100.00
34297;BME280;20564;42.902;25.336;2023-01-29T11:41:57;97523.28;;;1.49;100.00
34297;BME280;20564;42.902;25.336;2023-01-29T11:44:33;97522.53;;;1.47;100.00
34297;BME280;20564;42.902;25.336;2023-01-29T11:49:38;97510.69;;;1.41;100.00
34297;BME280;20564;42.902;25.336;2023-01-29T11:52:08;97516.94;;;1.37;100.00
34297;BME280;20564;42.902;25.336;2023-01-29T11:54:39;97519.09;;;1.47;100.00
34297;BME280;20564;42.902;25.336;2023-01-29T11:57:33;97520.09;;;1.44;100.00
34297;BME280;20564;42.902;25.336;2023-01-29T12:00:06;97516.19;;;1.35;100.00
34297;BME280;20564;42.902;25.336;2023-01-29T12:05:33;97506.72;;;1.34;100.00
34297;BME280;20564;42.902;25.336;2023-01-29T12:08:01;97519.91;;;1.30;100.00
34297;BME280;20564;42.902;25.336;2023-01-29T12:10:34;97513.81;;;1.31;100.00
34297;BME280;20564;42.902;25.336;2023-01-29T12:15:39;97510.31;;;1.32;100.00
34297;BME280;20564;42.902;25.336;2023-01-29T12:18:29;97508.78;;;1.28;100.00
34297;BME280;20564;42.902;25.336;2023-01-29T12:21:04;97514.66;;;1.31;100.00
34297;BME280;20564;42.902;25.336;2023-01-29T12:23:51;97515.50;;;1.32;100.00
34297;BME280;20564;42.902;25.336;2023-01-29T12:26:30;97506.19;;;1.28;100.00
34297;BME280;20564;42.902;25.336;2023-01-29T12:32:06;97514.66;;;1.31;100.00
34297;BME280;20564;42.902;25.336;2023-01-29T12:39:41;97520.69;;;1.32;100.00
34297;BME280;20564;42.902;25.336;2023-01-29T12:42:13;97508.41;;;1.35;100.00
34297;BME280;20564;42.902;25.336;2023-01-29T12:47:41;97511.53;;;1.42;100.00
34297;BME280;20564;42.902;25.336;2023-01-29T12:50:19;97513.91;;;1.47;100.00
34297;BME280;20564;42.902;25.336;2023-01-29T12:52:52;97523.28;;;1.49;100.00
34297;BME280;20564;42.902;25.336;2023-01-29T12:55:25;97514.13;;;1.59;100.00
34297;BME280;20564;42.902;25.336;2023-01-29T12:58:08;97505.66;;;1.56;100.00
34297;BME280;20564;42.902;25.336;2023-01-29T13:00:41;97515.66;;;1.63;100.00
34297;BME280;20564;42.902;25.336;2023-01-29T13:05:50;97516.13;;;1.54;100.00
34297;BME280;20564;42.902;25.336;2023-01-29T13:08:24;97530.63;;;1.58;100.00
34297;BME280;20564;42.902;25.336;2023-01-29T13:10:53;97511.81;;;1.53;100.00
34297;BME280;20564;42.902;25.336;2023-01-29T13:13:37;97520.25;;;1.58;100.00
34297;BME280;20564;42.902;25.336;2023-01-29T13:16:11;97526.19;;;1.60;100.00
34297;BME280;20564;42.902;25.336;2023-01-29T13:18:59;97529.53;;;1.62;100.00
34297;BME280;20564;42.902;25.336;2023-01-29T13:21:30;97536.56;;;1.60;100.00
34297;BME280;20564;42.902;25.336;2023-01-29T13:26:37;97525.28;;;1.61;100.00
34297;BME280;20564;42.902;25.336;2023-01-29T13:29:05;97536.72;;;1.57;100.00
34297;BME280;20564;42.902;25.336;2023-01-29T13:31:35;97534.19;;;1.56;100.00
34297;BME280;20564;42.902;25.336;2023-01-29T13:34:23;97540.53;;;1.50;100.00
34297;BME280;20564;42.902;25.336;2023-01-29T13:36:52;97529.31;;;1.50;100.00
34297;BME280;20564;42.902;25.336;2023-01-29T13:39:28;97537.88;;;1.52;100.00
34297;BME280;20564;42.902;25.336;2023-01-29T13:41:57;97535.34;;;1.50;100.00
34297;BME280;20564;42.902;25.336;2023-01-29T13:44:28;97533.50;;;1.52;100.00
34297;BME280;20564;42.902;25.336;2023-01-29T13:47:28;97541.38;;;1.51;100.00
34297;BME280;20564;42.902;25.336;2023-01-29T13:50:00;97531.97;;;1.48;100.00
34297;BME280;20564;42.902;25.336;2023-01-29T13:52:41;97532.13;;;1.45;100.00
34297;BME280;20564;42.902;25.336;2023-01-29T14:05:41;97551.97;;;1.46;100.00
34297;BME280;20564;42.902;25.336;2023-01-29T14:10:36;97520.69;;;1.32;100.00
34297;BME280;20564;42.902;25.336;2023-01-29T14:15:34;97544.81;;;1.51;100.00
34297;BME280;20564;42.902;25.336;2023-01-29T14:29:19;97536.09;;;1.52;100.00
34297;BME280;20564;42.902;25.336;2023-01-29T14:34:35;97542.75;;;1.58;100.00
34297;BME280;20564;42.902;25.336;2023-01-29T14:39:55;97556.56;;;1.58;100.00
34297;BME280;20564;42.902;25.336;2023-01-29T14:42:28;97557.31;;;1.60;100.00
34297;BME280;20564;42.902;25.336;2023-01-29T14:53:05;97551.66;;;1.52;100.00
34297;BME280;20564;42.902;25.336;2023-01-29T14:55:40;97554.25;;;1.52;100.00
34297;BME280;20564;42.902;25.336;2023-01-29T14:58:13;97560.97;;;1.56;100.00
34297;BME280;20564;42.902;25.336;2023-01-29T15:00:44;97556.09;;;1.50;100.00
34297;BME280;20564;42.902;25.336;2023-01-29T15:03:18;97559.59;;;1.49;100.00
34297;BME280;20564;42.902;25.336;2023-01-29T15:05:47;97564.63;;;1.52;100.00
34297;BME280;20564;42.902;25.336;2023-01-29T15:08:26;97575.31;;;1.46;100.00
34297;BME280;20564;42.902;25.336;2023-01-29T15:10:59;97568.59;;;1.42;100.00
34297;BME280;20564;42.902;25.336;2023-01-29T15:14:06;97567.00;;;1.39;100.00
34297;BME280;20564;42.902;25.336;2023-01-29T15:19:31;97565.38;;;1.37;100.00
34297;BME280;20564;42.902;25.336;2023-01-29T15:22:11;97565.53;;;1.34;100.00
34297;BME280;20564;42.902;25.336;2023-01-29T15:24:40;97570.84;;;1.31;100.00
34297;BME280;20564;42.902;25.336;2023-01-29T15:27:13;97577.09;;;1.27;100.00
34297;BME280;20564;42.902;25.336;2023-01-29T15:29:43;97568.50;;;1.26;100.00
34297;BME280;20564;42.902;25.336;2023-01-29T15:32:26;97577.06;;;1.28;100.00
34297;BME280;20564;42.902;25.336;2023-01-29T15:34:56;97582.28;;;1.27;100.00
34297;BME280;20564;42.902;25.336;2023-01-29T15:37:31;97579.69;;;1.27;100.00
34297;BME280;20564;42.902;25.336;2023-01-29T15:40:00;97581.69;;;1.22;100.00
34297;BME280;20564;42.902;25.336;2023-01-29T15:42:40;97577.69;;;1.14;100.00
34297;BME280;20564;42.902;25.336;2023-01-29T15:48:04;97583.44;;;1.02;100.00
34297;BME280;20564;42.902;25.336;2023-01-29T15:50:35;97589.50;;;1.03;100.00
34297;BME280;20564;42.902;25.336;2023-01-29T15:53:07;97589.28;;;1.07;100.00
34297;BME280;20564;42.902;25.336;2023-01-29T15:55:36;97585.00;;;1.06;100.00
34297;BME280;20564;42.902;25.336;2023-01-29T15:58:03;97583.16;;;1.08;100.00
34297;BME280;20564;42.902;25.336;2023-01-29T16:00:32;97589.88;;;1.12;100.00
34297;BME280;20564;42.902;25.336;2023-01-29T16:03:12;97592.34;;;1.15;100.00
34297;BME280;20564;42.902;25.336;2023-01-29T16:05:40;97587.16;;;1.15;100.00
34297;BME280;20564;42.902;25.336;2023-01-29T16:08:11;97582.66;;;1.19;100.00
34297;BME280;20564;42.902;25.336;2023-01-29T16:10:40;97586.88;;;1.22;100.00
34297;BME280;20564;42.902;25.336;2023-01-29T16:13:38;97593.44;;;1.29;100.00
34297;BME280;20564;42.902;25.336;2023-01-29T16:16:22;97576.41;;;1.23;100.00
34297;BME280;20564;42.902;25.336;2023-01-29T16:18:50;97582.38;;;1.25;100.00
34297;BME280;20564;42.902;25.336;2023-01-29T16:21:30;97587.56;;;1.25;100.00
34297;BME280;20564;42.902;25.336;2023-01-29T16:24:06;97598.50;;;1.32;100.00